createdAt,value
2023-05-12T00:01:55.741Z,52.20
2023-05-12T00:04:22.536Z,53.18
2023-05-12T00:06:49.944Z,52.43
2023-05-12T00:09:16.754Z,52.84
2023-05-12T00:11:46.859Z,54.70
2023-05-12T00:14:13.569Z,53.18
2023-05-12T00:16:40.236Z,53.08
2023-05-12T00:19:06.908Z,54.53
2023-05-12T00:21:33.637Z,55.55
2023-05-12T00:24:00.218Z,53.83
2023-05-12T00:26:26.886Z,54.99
2023-05-12T00:28:53.465Z,54.14
2023-05-12T00:31:20.210Z,54.66
2023-05-12T00:33:47.510Z,54.14
2023-05-12T00:36:14.714Z,53.84
2023-05-12T00:38:41.386Z,55.18
2023-05-12T00:41:08.003Z,54.24
2023-05-12T00:43:34.849Z,53.90
2023-05-12T00:46:04.376Z,54.92
2023-05-12T00:48:32.162Z,54.44
2023-05-12T00:50:59.532Z,55.47
2023-05-12T00:53:30.688Z,55.74
2023-05-12T00:56:05.221Z,54.74
2023-05-12T00:58:32.163Z,56.40
2023-05-12T01:00:58.685Z,55.72
2023-05-12T01:03:26.370Z,56.42
2023-05-12T01:06:01.476Z,57.00
2023-05-12T01:08:29.404Z,56.76
2023-05-12T01:10:56.010Z,57.93
2023-05-12T01:13:22.654Z,58.17
2023-05-12T01:15:51.013Z,58.12
2023-05-12T01:18:20.077Z,58.39
2023-05-12T01:20:48.142Z,58.64
2023-05-12T01:23:18.958Z,58.85
2023-05-12T01:25:49.086Z,59.63
2023-05-12T01:28:17.137Z,59.91
2023-05-12T01:30:44.409Z,59.66
2023-05-12T01:33:11.068Z,59.69
2023-05-12T01:35:40.359Z,60.02
2023-05-12T01:38:06.908Z,60.36
2023-05-12T01:40:33.896Z,60.58
2023-05-12T01:43:00.529Z,60.75
2023-05-12T01:45:27.105Z,61.48
2023-05-12T01:47:53.732Z,61.57
2023-05-12T01:50:21.038Z,62.51
2023-05-12T01:52:47.834Z,62.02
2023-05-12T01:55:14.389Z,61.86
2023-05-12T01:57:40.990Z,62.11
2023-05-12T02:00:08.911Z,62.51
2023-05-12T02:02:35.581Z,63.56
2023-05-12T02:05:02.200Z,63.40
2023-05-12T02:07:28.917Z,64.13
2023-05-12T02:09:55.613Z,65.57
2023-05-12T02:12:22.142Z,64.67
2023-05-12T02:14:48.845Z,65.66
2023-05-12T02:17:17.019Z,66.35
2023-05-12T02:19:43.660Z,67.01
2023-05-12T02:22:10.209Z,67.29
2023-05-12T02:24:36.749Z,67.05
2023-05-12T02:27:03.469Z,67.70
2023-05-12T02:29:29.984Z,68.05
2023-05-12T02:31:56.727Z,68.45
2023-05-12T02:34:23.300Z,68.91
2023-05-12T02:36:49.883Z,69.08
2023-05-12T02:39:16.608Z,69.29
2023-05-12T02:41:43.338Z,69.96
2023-05-12T02:44:09.908Z,70.30
2023-05-12T02:46:37.285Z,70.21
2023-05-12T02:49:04.382Z,70.52
2023-05-12T02:51:31.940Z,71.26
2023-05-12T02:53:58.544Z,71.25
2023-05-12T02:56:25.919Z,71.33
2023-05-12T02:58:53.365Z,72.09
2023-05-12T03:01:19.975Z,72.22
2023-05-12T03:03:46.832Z,72.36
2023-05-12T03:06:13.646Z,72.10
2023-05-12T03:08:40.253Z,72.33
2023-05-12T03:11:06.907Z,72.39
2023-05-12T03:13:33.521Z,72.82
2023-05-12T03:16:02.910Z,72.88
2023-05-12T03:18:29.682Z,73.16
2023-05-12T03:20:56.357Z,73.24
2023-05-12T03:23:23.047Z,73.40
2023-05-12T03:25:50.363Z,73.84
2023-05-12T03:28:17.000Z,73.70
2023-05-12T03:30:43.588Z,73.79
2023-05-12T03:33:10.739Z,73.99
2023-05-12T03:35:37.265Z,73.64
2023-05-12T03:38:03.809Z,73.60
2023-05-12T03:40:30.744Z,74.17
2023-05-12T03:42:57.358Z,74.06
2023-05-12T03:45:23.946Z,73.71
2023-05-12T03:47:50.863Z,74.40
2023-05-12T03:50:17.811Z,74.70
2023-05-12T03:52:44.650Z,74.87
2023-05-12T03:55:11.263Z,74.38
2023-05-12T03:57:38.165Z,74.54
2023-05-12T04:00:05.883Z,75.06
2023-05-12T04:02:32.587Z,74.91
2023-05-12T04:04:59.531Z,75.46
2023-05-12T04:07:26.332Z,75.16
2023-05-12T04:09:53.067Z,75.45
2023-05-12T04:12:19.678Z,75.58
2023-05-12T04:14:46.520Z,75.74
2023-05-12T04:17:13.193Z,75.65
2023-05-12T04:19:39.822Z,75.44
2023-05-12T04:22:06.393Z,75.47
2023-05-12T04:24:33.078Z,75.37
2023-05-12T04:26:59.626Z,75.34
2023-05-12T04:29:26.248Z,75.61
2023-05-12T04:31:55.483Z,75.72
2023-05-12T04:34:22.096Z,76.02
2023-05-12T04:36:48.608Z,76.00
2023-05-12T04:39:15.317Z,75.98
2023-05-12T04:41:41.842Z,76.26
2023-05-12T04:44:08.344Z,76.12
2023-05-12T04:46:35.014Z,75.57
2023-05-12T04:49:01.839Z,75.04
2023-05-12T04:51:28.409Z,74.67
2023-05-12T04:53:55.102Z,73.33
2023-05-12T04:56:22.361Z,72.76
2023-05-12T04:58:49.095Z,71.37
2023-05-12T05:01:15.988Z,70.98
2023-05-12T05:03:42.792Z,70.52
2023-05-12T05:06:09.422Z,69.82
2023-05-12T05:08:35.961Z,68.42
2023-05-12T05:11:02.541Z,66.31
2023-05-12T05:13:29.125Z,66.86
2023-05-12T05:15:55.741Z,64.23
2023-05-12T05:18:24.207Z,65.87
2023-05-12T05:20:57.666Z,65.10
2023-05-12T05:23:25.834Z,64.25
2023-05-12T05:25:52.625Z,64.01
2023-05-12T05:28:19.140Z,62.33
2023-05-12T05:30:45.782Z,62.98
2023-05-12T05:33:13.140Z,60.84
2023-05-12T05:35:40.214Z,60.43
2023-05-12T05:38:06.750Z,59.47
2023-05-12T05:40:44.965Z,57.64
2023-05-12T05:43:18.607Z,58.00
2023-05-12T05:45:45.363Z,56.44
2023-05-12T05:48:12.194Z,55.15
2023-05-12T05:50:39.030Z,54.28
2023-05-12T05:53:06.652Z,53.03
2023-05-12T05:55:33.240Z,48.89
2023-05-12T05:57:59.893Z,45.73
2023-05-12T06:00:26.748Z,43.50
2023-05-12T06:02:53.341Z,41.92
2023-05-12T06:05:20.363Z,39.46
2023-05-12T06:07:47.103Z,38.73
2023-05-12T06:10:13.711Z,38.63
2023-05-12T06:12:43.698Z,39.90
2023-05-12T06:15:11.215Z,38.68
2023-05-12T06:17:38.234Z,38.22
2023-05-12T06:20:06.469Z,37.53
2023-05-12T06:22:34.658Z,36.62
2023-05-12T06:25:01.639Z,36.99
2023-05-12T06:27:28.279Z,35.40
2023-05-12T06:29:55.124Z,35.54
2023-05-12T06:32:21.922Z,34.61
2023-05-12T06:34:48.614Z,35.08
2023-05-12T06:37:15.253Z,34.90
2023-05-12T06:39:41.866Z,34.68
2023-05-12T06:42:08.513Z,34.43
2023-05-12T06:44:35.184Z,34.75
2023-05-12T06:47:01.701Z,33.87
2023-05-12T06:49:28.301Z,33.76
2023-05-12T06:51:54.891Z,32.84
2023-05-12T06:54:21.494Z,31.82
2023-05-12T06:56:48.020Z,31.96
2023-05-12T06:59:14.560Z,32.31
2023-05-12T07:01:42.939Z,31.26
2023-05-12T07:04:09.619Z,30.48
2023-05-12T07:06:36.202Z,31.49
2023-05-12T07:09:02.857Z,31.35
2023-05-12T07:11:29.459Z,30.16
2023-05-12T07:13:56.396Z,30.22
2023-05-12T07:16:23.034Z,31.04
2023-05-12T07:18:49.749Z,28.73
2023-05-12T07:21:16.451Z,28.98
2023-05-12T07:23:43.127Z,29.43
2023-05-12T07:26:10.510Z,27.89
2023-05-12T07:28:38.009Z,27.59
2023-05-12T07:31:07.154Z,30.19
2023-05-12T07:33:35.251Z,28.66
2023-05-12T07:36:04.563Z,28.30
2023-05-12T07:38:31.977Z,28.09
2023-05-12T07:40:59.596Z,26.58
2023-05-12T07:43:26.459Z,27.98
2023-05-12T07:45:54.578Z,26.00
2023-05-12T07:48:21.676Z,27.84
2023-05-12T07:50:48.433Z,25.96
2023-05-12T07:53:15.142Z,26.77
2023-05-12T07:55:43.144Z,26.69
2023-05-12T07:58:09.845Z,26.19
2023-05-12T08:00:37.265Z,24.98
2023-05-12T08:03:04.778Z,24.76
2023-05-12T08:05:31.380Z,25.11
2023-05-12T08:07:58.040Z,25.08
2023-05-12T08:10:29.538Z,23.90
2023-05-12T08:12:56.572Z,25.90
2023-05-12T08:15:23.538Z,24.88
2023-05-12T08:17:50.158Z,25.39
2023-05-12T08:20:16.738Z,25.84
2023-05-12T08:22:44.077Z,24.63
2023-05-12T08:25:17.720Z,24.56
2023-05-12T08:27:44.415Z,25.35
2023-05-12T08:30:11.689Z,23.75
2023-05-12T08:32:39.469Z,24.72
2023-05-12T08:35:06.507Z,24.14
2023-05-12T08:37:34.705Z,23.51
2023-05-12T08:40:01.853Z,23.92
2023-05-12T08:42:37.285Z,23.67
2023-05-12T08:45:04.384Z,24.09
2023-05-12T08:47:33.492Z,23.29
2023-05-12T08:50:03.322Z,23.73
2023-05-12T08:52:33.047Z,23.66
2023-05-12T08:55:01.080Z,23.36
2023-05-12T08:57:29.841Z,26.28
2023-05-12T08:59:59.481Z,25.77
2023-05-12T09:02:37.613Z,21.97
2023-05-12T09:05:09.211Z,23.97
2023-05-12T09:07:39.669Z,22.29
2023-05-12T09:10:08.704Z,23.74
2023-05-12T09:12:37.867Z,21.96
2023-05-12T09:15:09.695Z,21.89
2023-05-12T09:17:36.627Z,22.52
2023-05-12T09:20:04.151Z,22.96
2023-05-12T09:22:33.566Z,24.13
2023-05-12T09:25:00.298Z,20.82
2023-05-12T09:27:30.285Z,21.36
2023-05-12T09:29:59.689Z,21.50
2023-05-12T09:32:32.480Z,21.72
2023-05-12T09:35:06.585Z,21.44
2023-05-12T09:37:34.611Z,21.92
2023-05-12T09:40:02.932Z,22.17
2023-05-12T09:42:31.148Z,21.28
2023-05-12T09:45:00.868Z,21.25
2023-05-12T09:47:29.262Z,21.64
2023-05-12T09:49:57.633Z,22.65
2023-05-12T09:52:24.293Z,21.54
2023-05-12T09:54:52.658Z,21.46
2023-05-12T09:57:21.874Z,22.60
2023-05-12T09:59:49.746Z,20.61
2023-05-12T10:02:16.875Z,21.13
2023-05-12T10:05:00.965Z,21.31
2023-05-12T10:07:28.102Z,21.81
2023-05-12T10:09:58.541Z,21.38
2023-05-12T10:12:25.173Z,22.03
2023-05-12T10:14:52.098Z,22.31
2023-05-12T10:17:20.093Z,21.58
2023-05-12T10:19:48.298Z,22.74
2023-05-12T10:22:17.193Z,22.13
2023-05-12T10:24:45.646Z,21.96
2023-05-12T10:27:13.616Z,22.00
2023-05-12T10:29:41.080Z,21.08
2023-05-12T10:32:07.707Z,19.96
2023-05-12T10:34:35.951Z,21.25
2023-05-12T10:37:08.269Z,20.95
2023-05-12T10:39:35.122Z,20.98
2023-05-12T10:42:09.495Z,20.38
2023-05-12T10:44:47.552Z,21.09
2023-05-12T10:47:17.257Z,20.80
2023-05-12T10:49:44.030Z,21.96
2023-05-12T10:52:13.031Z,19.59
2023-05-12T10:54:44.745Z,19.70
2023-05-12T10:57:21.195Z,19.30
2023-05-12T11:00:02.524Z,20.96
2023-05-12T11:02:34.937Z,20.28
2023-05-12T11:05:10.334Z,20.03
2023-05-12T11:07:37.806Z,19.88
2023-05-12T11:10:06.042Z,19.14
2023-05-12T11:12:37.871Z,19.50
2023-05-12T11:15:06.427Z,18.83
2023-05-12T11:17:33.543Z,18.64
2023-05-12T11:20:01.338Z,19.33
2023-05-12T11:22:28.343Z,20.40
2023-05-12T11:24:55.122Z,21.18
2023-05-12T11:27:23.478Z,20.61
2023-05-12T11:30:01.697Z,21.54
2023-05-12T11:32:30.408Z,20.48
2023-05-12T11:35:09.730Z,20.42
2023-05-12T11:37:38.542Z,19.88
2023-05-12T11:40:25.528Z,19.62
2023-05-12T11:42:53.896Z,18.85
2023-05-12T11:45:29.245Z,19.20
2023-05-12T11:48:12.121Z,19.19
2023-05-12T11:50:40.962Z,21.36
2023-05-12T11:53:13.564Z,21.38
2023-05-12T11:55:55.722Z,22.29
2023-05-12T11:58:29.816Z,21.25
2023-05-12T12:00:57.631Z,21.24
2023-05-12T12:03:24.818Z,21.66
2023-05-12T12:06:02.725Z,22.09
2023-05-12T12:08:29.789Z,20.74
2023-05-12T12:10:56.521Z,20.31
2023-05-12T12:13:24.721Z,20.90
2023-05-12T12:15:52.328Z,22.24
2023-05-12T12:18:19.196Z,21.88
2023-05-12T12:20:47.138Z,22.88
2023-05-12T12:23:13.741Z,20.72
2023-05-12T12:25:40.429Z,22.06
2023-05-12T12:28:07.162Z,22.00
2023-05-12T12:30:34.108Z,22.58
2023-05-12T12:33:00.816Z,21.92
2023-05-12T12:35:27.411Z,21.53
2023-05-12T12:37:54.041Z,22.20
2023-05-12T12:40:20.706Z,23.13
2023-05-12T12:42:47.413Z,23.46
2023-05-12T12:45:14.136Z,23.91
2023-05-12T12:47:40.785Z,21.75
2023-05-12T12:50:09.577Z,22.54
2023-05-12T12:52:38.242Z,22.85
2023-05-12T12:55:06.624Z,23.07
2023-05-12T12:57:33.242Z,24.04
2023-05-12T12:59:59.860Z,22.01
2023-05-12T13:02:27.078Z,24.52
2023-05-12T13:04:53.877Z,22.13
2023-05-12T13:07:20.796Z,22.28
2023-05-12T13:09:47.665Z,24.26
2023-05-12T13:12:14.676Z,23.19
2023-05-12T13:14:41.262Z,22.16
2023-05-12T13:17:08.204Z,23.37
2023-05-12T13:19:37.796Z,22.23
2023-05-12T13:22:05.254Z,23.33
2023-05-12T13:24:31.872Z,24.96
2023-05-12T13:26:58.517Z,23.51
2023-05-12T13:29:25.131Z,24.50
2023-05-12T13:31:51.763Z,24.75
2023-05-12T13:34:18.381Z,25.10
2023-05-12T13:36:45.106Z,24.31
2023-05-12T13:39:12.620Z,26.06
2023-05-12T13:41:39.138Z,25.59
2023-05-12T13:44:06.110Z,25.30
2023-05-12T13:46:32.806Z,25.69
2023-05-12T13:48:59.442Z,27.25
2023-05-12T13:51:26.434Z,27.21
2023-05-12T13:53:53.251Z,27.21
2023-05-12T13:56:20.793Z,25.61
2023-05-12T13:58:47.687Z,25.60
2023-05-12T14:01:14.813Z,27.05
2023-05-12T14:03:42.106Z,26.09
2023-05-12T14:06:09.285Z,26.60
2023-05-12T14:08:36.269Z,26.78
2023-05-12T14:11:03.049Z,27.36
2023-05-12T14:13:29.694Z,26.96
2023-05-12T14:15:56.682Z,26.41
2023-05-12T14:18:24.618Z,27.42
2023-05-12T14:20:51.492Z,27.84
2023-05-12T14:23:18.039Z,27.77
2023-05-12T14:25:45.550Z,25.97
2023-05-12T14:28:12.284Z,27.79
2023-05-12T14:30:39.104Z,26.93
2023-05-12T14:33:06.473Z,27.20
2023-05-12T14:35:33.095Z,28.86
2023-05-12T14:37:59.721Z,29.15
2023-05-12T14:40:27.177Z,27.71
2023-05-12T14:42:54.540Z,28.08
2023-05-12T14:45:21.580Z,28.83
2023-05-12T14:47:48.493Z,30.90
2023-05-12T14:50:15.204Z,30.74
2023-05-12T14:52:42.237Z,31.09
2023-05-12T14:55:11.794Z,30.17
2023-05-12T14:57:42.566Z,30.88
2023-05-12T15:00:13.756Z,30.62
2023-05-12T15:02:42.098Z,28.95
2023-05-12T15:05:10.087Z,30.04
2023-05-12T15:07:37.158Z,28.95
2023-05-12T15:10:04.736Z,28.84
2023-05-12T15:12:31.812Z,29.42
2023-05-12T15:15:01.154Z,29.20
2023-05-12T15:17:30.766Z,31.13
2023-05-12T15:19:57.621Z,30.83
2023-05-12T15:22:24.118Z,30.04
2023-05-12T15:24:50.695Z,30.01
2023-05-12T15:27:17.300Z,29.33
2023-05-12T15:29:43.951Z,31.21
2023-05-12T15:32:10.894Z,29.77
2023-05-12T15:34:37.627Z,30.21
2023-05-12T15:37:04.519Z,30.94
2023-05-12T15:39:31.572Z,29.52
2023-05-12T15:41:58.938Z,31.40
2023-05-12T15:44:25.572Z,29.02
2023-05-12T15:46:52.370Z,28.87
2023-05-12T15:49:18.992Z,28.55
2023-05-12T15:51:45.592Z,29.87
2023-05-12T15:54:12.506Z,29.26
2023-05-12T15:56:39.115Z,29.78
2023-05-12T15:59:06.026Z,29.46
2023-05-12T16:01:32.755Z,29.19
2023-05-12T16:04:00.057Z,29.48
2023-05-12T16:06:27.103Z,29.66
2023-05-12T16:08:53.713Z,31.60
2023-05-12T16:11:20.309Z,30.83
2023-05-12T16:13:47.011Z,30.86
2023-05-12T16:16:14.088Z,30.74
2023-05-12T16:18:40.833Z,31.35
2023-05-12T16:21:08.268Z,32.73
2023-05-12T16:23:35.058Z,30.03
2023-05-12T16:26:01.681Z,31.01
2023-05-12T16:28:28.289Z,30.47
2023-05-12T16:30:54.836Z,31.41
2023-05-12T16:33:21.410Z,31.58
2023-05-12T16:35:48.028Z,31.76
2023-05-12T16:38:14.781Z,31.89
2023-05-12T16:40:41.458Z,32.46
2023-05-12T16:43:08.112Z,32.76
2023-05-12T16:45:34.849Z,32.77
2023-05-12T16:48:01.980Z,32.48
2023-05-12T16:50:28.637Z,32.47
2023-05-12T16:52:55.294Z,33.46
2023-05-12T16:55:22.243Z,33.15
2023-05-12T16:57:49.101Z,34.78
2023-05-12T17:00:16.131Z,33.34
2023-05-12T17:02:42.850Z,33.43
2023-05-12T17:05:09.718Z,33.65
2023-05-12T17:07:36.940Z,32.75
2023-05-12T17:10:04.069Z,33.61
2023-05-12T17:12:30.809Z,32.92
2023-05-12T17:15:06.855Z,32.44
2023-05-12T17:17:34.837Z,32.78
2023-05-12T17:20:01.629Z,33.80
2023-05-12T17:22:28.425Z,33.50
2023-05-12T17:24:54.968Z,33.37
2023-05-12T17:27:21.690Z,33.27
2023-05-12T17:29:48.294Z,34.08
2023-05-12T17:32:14.906Z,33.98
2023-05-12T17:34:41.885Z,34.23
2023-05-12T17:37:08.438Z,34.29
2023-05-12T17:39:35.027Z,34.41
2023-05-12T17:42:01.585Z,34.44
2023-05-12T17:44:29.935Z,35.59
2023-05-12T17:46:56.728Z,34.97
2023-05-12T17:49:23.653Z,35.36
2023-05-12T17:51:54.657Z,36.05
2023-05-12T17:54:21.278Z,35.88
2023-05-12T17:56:47.988Z,36.54
2023-05-12T17:59:14.922Z,36.95
2023-05-12T18:01:41.765Z,35.44
2023-05-12T18:04:08.397Z,38.40
2023-05-12T18:06:35.498Z,36.11
2023-05-12T18:09:02.630Z,35.69
2023-05-12T18:11:29.234Z,37.32
2023-05-12T18:13:56.086Z,37.93
2023-05-12T18:16:29.007Z,38.55
2023-05-12T18:18:56.307Z,39.65
2023-05-12T18:21:24.285Z,39.80
2023-05-12T18:23:50.936Z,39.45
2023-05-12T18:26:17.488Z,40.00
2023-05-12T18:28:44.134Z,40.75
2023-05-12T18:33:40.772Z,41.15
2023-05-12T18:36:07.527Z,40.23
2023-05-12T18:38:34.519Z,41.94
2023-05-12T18:41:01.111Z,41.55
2023-05-12T18:43:27.746Z,42.36
2023-05-12T18:45:54.323Z,42.12
2023-05-12T18:48:20.908Z,42.20
2023-05-12T18:50:47.573Z,42.59
2023-05-12T18:53:15.145Z,43.56
2023-05-12T18:55:41.732Z,44.11
2023-05-12T18:58:08.471Z,44.39
2023-05-12T19:00:35.598Z,44.53
2023-05-12T19:03:05.090Z,45.68
2023-05-12T19:05:31.974Z,45.33
2023-05-12T19:07:58.536Z,46.14
2023-05-12T19:10:25.203Z,46.74
2023-05-12T19:12:51.795Z,46.79
2023-05-12T19:15:18.585Z,46.54
2023-05-12T19:17:45.384Z,47.26
2023-05-12T19:20:12.208Z,48.69
2023-05-12T19:22:38.844Z,50.76
2023-05-12T19:25:06.192Z,52.62
2023-05-12T19:27:32.816Z,51.62
2023-05-12T19:30:02.128Z,49.27
2023-05-12T19:32:29.090Z,49.39
2023-05-12T19:34:55.967Z,50.78
2023-05-12T19:37:22.768Z,49.12
2023-05-12T19:39:50.072Z,48.96
2023-05-12T19:42:16.575Z,48.89
2023-05-12T19:44:43.187Z,48.78
2023-05-12T19:47:09.825Z,48.86
2023-05-12T19:49:36.945Z,49.71
2023-05-12T19:52:05.789Z,50.27
2023-05-12T19:54:32.492Z,49.13
2023-05-12T19:56:59.046Z,48.15
2023-05-12T20:03:06.818Z,49.61
2023-05-12T20:05:37.436Z,49.56
2023-05-12T20:08:04.347Z,49.94
2023-05-12T20:10:31.045Z,49.38
2023-05-12T20:12:57.603Z,49.21
2023-05-12T20:15:24.363Z,50.33
2023-05-12T20:17:50.905Z,50.48
2023-05-12T20:20:17.536Z,50.12
2023-05-12T20:22:44.425Z,51.73
2023-05-12T20:25:14.294Z,50.24
2023-05-12T20:27:42.294Z,50.90
2023-05-12T20:30:10.407Z,51.57
2023-05-12T20:32:37.117Z,53.37
2023-05-12T20:35:04.691Z,51.73
2023-05-12T20:37:31.583Z,53.03
2023-05-12T20:39:58.200Z,53.57
2023-05-12T20:42:24.987Z,52.14
2023-05-12T20:44:51.529Z,52.79
2023-05-12T20:47:18.665Z,52.60
2023-05-12T20:49:45.309Z,53.05
2023-05-12T20:52:11.955Z,52.89
2023-05-12T20:54:38.598Z,53.55
2023-05-12T20:57:05.494Z,53.26
2023-05-12T20:59:32.085Z,53.91
2023-05-12T21:01:58.764Z,54.74
2023-05-12T21:04:25.913Z,56.01
2023-05-12T21:06:53.628Z,54.49
2023-05-12T21:09:20.539Z,55.30
2023-05-12T21:11:47.272Z,54.97
2023-05-12T21:14:13.865Z,55.02
2023-05-12T21:16:40.674Z,55.00
2023-05-12T21:19:07.436Z,56.18
2023-05-12T21:21:34.284Z,56.22
2023-05-12T21:24:00.873Z,56.01
2023-05-12T21:26:27.482Z,56.39
2023-05-12T21:28:54.159Z,56.78
2023-05-12T21:31:20.825Z,57.15
2023-05-12T21:33:48.090Z,56.78
2023-05-12T21:36:14.785Z,57.40
2023-05-12T21:38:41.520Z,57.70
2023-05-12T21:41:08.127Z,57.58
2023-05-12T21:43:34.836Z,58.25
2023-05-12T21:46:03.411Z,58.41
2023-05-12T21:48:30.918Z,58.52
2023-05-12T21:51:02.199Z,58.69
2023-05-12T21:53:29.017Z,59.38
2023-05-12T21:55:55.756Z,59.73
2023-05-12T21:58:23.716Z,59.50
2023-05-12T22:00:51.321Z,59.70
2023-05-12T22:03:20.232Z,60.01
2023-05-12T22:05:46.998Z,60.18
2023-05-12T22:08:13.975Z,59.88
2023-05-12T22:10:40.716Z,59.88
2023-05-12T22:13:07.396Z,59.94
2023-05-12T22:15:34.636Z,61.21
2023-05-12T22:18:01.634Z,60.79
2023-05-12T22:20:28.270Z,60.75
2023-05-12T22:22:54.934Z,60.77
2023-05-12T22:25:21.602Z,61.14
2023-05-12T22:27:48.376Z,61.54
2023-05-12T22:30:14.895Z,60.89
2023-05-12T22:32:41.582Z,61.61
2023-05-12T22:35:08.634Z,62.89
2023-05-12T22:37:35.374Z,62.01
2023-05-12T22:40:02.386Z,62.23
2023-05-12T22:42:28.980Z,61.97
2023-05-12T22:44:57.302Z,62.28
2023-05-12T22:47:24.030Z,62.54
2023-05-12T22:49:50.700Z,62.98
2023-05-12T22:52:17.321Z,63.38
2023-05-12T22:54:43.872Z,63.32
2023-05-12T22:57:10.426Z,63.92
2023-05-12T22:59:37.074Z,63.73
2023-05-12T23:02:03.771Z,63.43
2023-05-12T23:04:30.772Z,64.61
2023-05-12T23:06:57.370Z,65.37
2023-05-12T23:09:23.941Z,64.88
2023-05-12T23:11:50.570Z,65.56
2023-05-12T23:14:17.177Z,65.48
2023-05-12T23:16:43.722Z,66.11
2023-05-12T23:19:10.410Z,66.03
2023-05-12T23:21:37.038Z,66.73
2023-05-12T23:24:04.008Z,67.01
2023-05-12T23:26:30.574Z,66.93
2023-05-12T23:28:57.157Z,66.82
2023-05-12T23:31:23.820Z,66.37
2023-05-12T23:33:50.490Z,66.80
2023-05-12T23:36:17.040Z,66.21
2023-05-12T23:38:43.766Z,65.89
2023-05-12T23:41:10.597Z,66.00
2023-05-12T23:43:37.136Z,66.39
2023-05-12T23:46:03.769Z,66.29
2023-05-12T23:48:30.468Z,66.76
2023-05-12T23:50:57.112Z,66.20
2023-05-12T23:53:23.665Z,66.94
2023-05-12T23:55:50.252Z,66.58
2023-05-12T23:58:16.917Z,66.58
